Time;durP1;ratioP1;P1;durP2;ratioP2;P2;SDS_P1;SDS_P2;PMS_P1;PMS_P2;Temp;Humidity;BMP_temperature;BMP_pressure;BME280_temperature;BME280_humidity;BME280_pressure;Samples;Min_cycle;Max_cycle;Signal;HPM_P1;HPM_P2
2022/06/04 00:00:16;;;;;;;12.38;4.47;;;;;;;;;;5109604;28;20078;-84
2022/06/04 00:02:43;;;;;;;9.15;4.07;;;;;;;;;;5092585;28;20054;-80
2022/06/04 00:05:09;;;;;;;8.98;4.10;;;;;;;;;;5090866;28;20046;-88
2022/06/04 00:07:36;;;;;;;5.75;3.97;;;;;;;;;;5093425;28;20091;-82
2022/06/04 00:15:41;;;;;;;6.85;4.10;;;;;;;;;;5108544;28;20059;-87
2022/06/04 00:18:07;;;;;;;8.50;4.57;;;;;;;;;;5095190;28;20036;-84
2022/06/04 00:20:33;;;;;;;7.97;4.40;;;;;;;;;;5095726;28;20497;-81
2022/06/04 00:23:01;;;;;;;9.65;4.80;;;;;;;;;;5095189;28;20031;-84
2022/06/04 00:25:27;;;;;;;12.82;5.13;;;;;;;;;;5096167;28;20036;-87
2022/06/04 00:27:56;;;;;;;9.82;5.00;;;;;;;;;;5094931;28;20040;-84
2022/06/04 00:30:22;;;;;;;10.77;4.97;;;;;;;;;;5094978;28;20126;-82
2022/06/04 00:32:48;;;;;;;12.15;5.03;;;;;;;;;;5095701;28;20070;-83
2022/06/04 00:35:14;;;;;;;7.55;4.57;;;;;;;;;;5095742;28;20040;-87
2022/06/04 00:37:40;;;;;;;9.32;4.45;;;;;;;;;;5112826;28;20054;-82
2022/06/04 00:40:08;;;;;;;8.32;4.53;;;;;;;;;;5095001;28;20062;-87
2022/06/04 00:42:34;;;;;;;5.53;3.90;;;;;;;;;;5094851;28;20072;-83
2022/06/04 00:45:19;;;;;;;8.75;4.18;;;;;;;;;;5112582;28;20043;-83
2022/06/04 00:47:45;;;;;;;9.98;4.97;;;;;;;;;;5095569;28;20467;-85
2022/06/04 00:50:13;;;;;;;9.48;4.68;;;;;;;;;;5112439;28;20027;-86
2022/06/04 00:52:40;;;;;;;8.07;4.00;;;;;;;;;;5095055;28;20027;-83
2022/06/04 00:55:07;;;;;;;14.63;4.75;;;;;;;;;;5095336;28;20042;-84
2022/06/04 00:57:52;;;;;;;16.10;4.97;;;;;;;;;;5095117;28;20380;-86
2022/06/04 01:00:18;;;;;;;8.73;4.63;;;;;;;;;;5095309;28;20062;-85
2022/06/04 01:02:59;;;;;;;7.28;4.50;;;;;;;;;;5096191;28;20043;-85
2022/06/04 01:05:45;;;;;;;9.27;4.68;;;;;;;;;;5094362;28;20509;-83
2022/06/04 01:08:17;;;;;;;8.85;5.30;;;;;;;;;;5095280;28;20536;-83
2022/06/04 01:10:48;;;;;;;9.73;5.05;;;;;;;;;;5095311;28;20039;-85
2022/06/04 01:13:33;;;;;;;7.55;4.55;;;;;;;;;;5111842;28;20097;-86
2022/06/04 01:16:11;;;;;;;13.55;5.15;;;;;;;;;;5094212;28;20047;-86
2022/06/04 01:18:46;;;;;;;10.73;5.57;;;;;;;;;;5111139;28;20043;-82
2022/06/04 01:21:25;;;;;;;12.70;5.32;;;;;;;;;;5094452;28;20483;-83
2022/06/04 01:24:09;;;;;;;11.32;5.50;;;;;;;;;;5095205;28;20044;-85
2022/06/04 01:26:41;;;;;;;8.15;4.80;;;;;;;;;;5094167;28;20422;-83
2022/06/04 01:29:19;;;;;;;7.05;5.15;;;;;;;;;;5094428;28;20080;-86
2022/06/04 01:31:58;;;;;;;13.50;5.75;;;;;;;;;;5093864;28;20119;-82
2022/06/04 01:34:32;;;;;;;11.43;5.35;;;;;;;;;;5094262;28;20092;-84
2022/06/04 01:37:04;;;;;;;12.63;5.53;;;;;;;;;;5095178;28;20051;-85
2022/06/04 01:41:03;;;;;;;14.95;6.30;;;;;;;;;;5096036;28;20051;-85
2022/06/04 01:42:19;;;;;;;11.23;6.20;;;;;;;;;;5111450;28;20046;-82
2022/06/04 01:44:45;;;;;;;12.43;5.72;;;;;;;;;;5094802;28;20055;-84
2022/06/04 01:47:11;;;;;;;10.55;6.43;;;;;;;;;;5095188;28;20042;-83
2022/06/04 01:49:37;;;;;;;13.88;6.85;;;;;;;;;;5097115;28;20130;-83
2022/06/04 01:52:06;;;;;;;12.73;6.57;;;;;;;;;;5095990;28;20119;-83
2022/06/04 01:54:35;;;;;;;10.45;5.55;;;;;;;;;;5095225;28;20042;-85
2022/06/04 01:57:04;;;;;;;12.48;5.68;;;;;;;;;;5092131;28;20513;-82
2022/06/04 01:59:40;;;;;;;22.23;7.53;;;;;;;;;;5094508;28;20071;-84
2022/06/04 02:02:08;;;;;;;9.57;5.53;;;;;;;;;;5092480;28;20039;-85
2022/06/04 02:04:39;;;;;;;12.93;6.13;;;;;;;;;;5094610;28;20040;-84
2022/06/04 02:09:54;;;;;;;11.68;6.40;;;;;;;;;;5116893;28;20036;-85
2022/06/04 02:12:21;;;;;;;12.70;5.65;;;;;;;;;;5099105;28;20028;-83
2022/06/04 02:14:47;;;;;;;9.50;5.35;;;;;;;;;;5098072;28;20085;-84
2022/06/04 02:17:15;;;;;;;15.05;5.88;;;;;;;;;;5097414;28;20479;-82
2022/06/04 02:19:42;;;;;;;14.93;6.65;;;;;;;;;;5097288;28;20052;-84
2022/06/04 02:22:09;;;;;;;12.50;6.35;;;;;;;;;;5097874;28;20410;-81
2022/06/04 02:24:35;;;;;;;12.15;6.10;;;;;;;;;;5098370;28;20045;-84
2022/06/04 02:27:01;;;;;;;15.10;6.30;;;;;;;;;;5097774;28;20070;-86
2022/06/04 02:29:27;;;;;;;13.07;6.80;;;;;;;;;;5114548;28;20427;-86
2022/06/04 02:32:03;;;;;;;14.07;7.13;;;;;;;;;;5097775;28;20134;-82
2022/06/04 02:34:42;;;;;;;13.38;6.75;;;;;;;;;;5097945;28;20040;-82
2022/06/04 02:37:28;;;;;;;10.77;6.50;;;;;;;;;;5098386;28;20053;-86
2022/06/04 02:40:02;;;;;;;10.48;6.95;;;;;;;;;;5087909;28;20060;-86
2022/06/04 02:42:31;;;;;;;15.73;6.15;;;;;;;;;;5098505;28;20044;-82
2022/06/04 02:45:01;;;;;;;13.02;5.88;;;;;;;;;;5097522;28;20043;-84
2022/06/04 02:47:31;;;;;;;11.98;5.97;;;;;;;;;;5098605;28;20040;-82
2022/06/04 02:50:08;;;;;;;14.30;6.03;;;;;;;;;;5095707;28;20065;-82
2022/06/04 02:52:35;;;;;;;10.82;5.88;;;;;;;;;;5113636;28;20566;-84
2022/06/04 02:55:05;;;;;;;11.85;6.70;;;;;;;;;;5096467;28;20494;-82
2022/06/04 02:57:33;;;;;;;13.85;6.28;;;;;;;;;;5096456;28;20545;-81
2022/06/04 02:59:59;;;;;;;11.43;5.93;;;;;;;;;;5096950;28;20376;-80
2022/06/04 03:02:27;;;;;;;10.18;6.30;;;;;;;;;;5096781;28;20180;-82
2022/06/04 03:04:56;;;;;;;9.75;6.22;;;;;;;;;;5113414;28;20043;-81
2022/06/04 03:07:22;;;;;;;12.52;5.75;;;;;;;;;;5110058;28;20055;-81
2022/06/04 03:09:51;;;;;;;11.25;5.40;;;;;;;;;;5093206;28;20089;-80
2022/06/04 03:12:17;;;;;;;11.68;6.07;;;;;;;;;;5092581;28;20487;-81
2022/06/04 03:14:43;;;;;;;15.07;6.72;;;;;;;;;;5092622;28;20112;-82
2022/06/04 03:17:11;;;;;;;13.02;6.35;;;;;;;;;;5092669;28;20050;-84
2022/06/04 03:19:37;;;;;;;16.13;7.20;;;;;;;;;;5092863;28;20047;-82
2022/06/04 03:22:03;;;;;;;12.82;6.43;;;;;;;;;;5092521;28;20050;-81
2022/06/04 03:24:29;;;;;;;13.40;5.85;;;;;;;;;;5092382;28;20043;-82
2022/06/04 03:26:56;;;;;;;11.98;5.47;;;;;;;;;;5093054;28;20046;-81
2022/06/04 03:29:22;;;;;;;11.07;6.75;;;;;;;;;;5093094;28;20043;-81
2022/06/04 03:31:48;;;;;;;10.85;5.03;;;;;;;;;;5092638;28;20138;-81
2022/06/04 03:34:14;;;;;;;7.80;5.63;;;;;;;;;;5092912;28;20494;-81
2022/06/04 03:36:40;;;;;;;13.32;5.35;;;;;;;;;;5092686;28;20488;-83
2022/06/04 03:39:08;;;;;;;9.88;5.63;;;;;;;;;;5092906;28;20038;-83
2022/06/04 03:41:34;;;;;;;10.25;6.28;;;;;;;;;;5093736;28;20060;-80
2022/06/04 03:44:00;;;;;;;12.50;5.85;;;;;;;;;;5113201;28;20453;-81
2022/06/04 03:46:27;;;;;;;9.75;5.47;;;;;;;;;;5096032;28;20039;-82
2022/06/04 03:48:54;;;;;;;7.90;4.93;;;;;;;;;;5096340;28;20479;-81
2022/06/04 03:51:20;;;;;;;9.27;4.90;;;;;;;;;;5095633;28;20467;-82
2022/06/04 03:53:46;;;;;;;10.85;5.13;;;;;;;;;;5112868;28;20089;-83
2022/06/04 03:56:12;;;;;;;11.27;4.82;;;;;;;;;;5095890;28;20043;-83
2022/06/04 03:58:38;;;;;;;10.52;4.80;;;;;;;;;;5096315;28;20048;-82
2022/06/04 04:01:13;;;;;;;9.52;4.78;;;;;;;;;;5095652;28;20047;-81
2022/06/04 04:03:39;;;;;;;7.10;4.78;;;;;;;;;;5095649;28;20138;-81
2022/06/04 04:06:05;;;;;;;12.73;5.45;;;;;;;;;;5094936;28;20126;-82
2022/06/04 04:08:31;;;;;;;7.68;4.78;;;;;;;;;;5095041;28;20368;-82
2022/06/04 04:10:57;;;;;;;9.48;6.10;;;;;;;;;;5095426;28;20168;-84
2022/06/04 04:13:23;;;;;;;10.48;5.35;;;;;;;;;;5095066;28;20111;-84
2022/06/04 04:15:49;;;;;;;9.48;4.80;;;;;;;;;;5096171;28;20480;-86
2022/06/04 04:18:15;;;;;;;14.85;5.63;;;;;;;;;;5095290;28;20118;-89
2022/06/04 04:20:45;;;;;;;8.77;5.07;;;;;;;;;;5095730;28;20128;-86
2022/06/04 04:23:11;;;;;;;10.95;5.07;;;;;;;;;;5095829;28;20035;-87
2022/06/04 04:25:38;;;;;;;8.45;5.03;;;;;;;;;;5095319;28;20093;-82
2022/06/04 04:28:05;;;;;;;8.18;5.32;;;;;;;;;;5114025;28;20471;-81
2022/06/04 04:30:33;;;;;;;11.40;5.05;;;;;;;;;;5095148;28;20040;-87
2022/06/04 04:32:59;;;;;;;9.32;4.82;;;;;;;;;;5095741;28;20032;-86
2022/06/04 04:35:27;;;;;;;9.07;5.13;;;;;;;;;;5096018;28;20032;-87
2022/06/04 04:37:54;;;;;;;12.40;5.70;;;;;;;;;;5096323;28;20055;-83
2022/06/04 04:40:21;;;;;;;15.43;5.68;;;;;;;;;;5096681;28;20056;-84
2022/06/04 04:42:48;;;;;;;12.93;5.03;;;;;;;;;;5096420;28;20055;-85
2022/06/04 04:45:14;;;;;;;11.25;5.43;;;;;;;;;;5095975;28;20035;-86
2022/06/04 04:47:42;;;;;;;9.15;5.18;;;;;;;;;;5096361;28;20043;-85
2022/06/04 04:50:11;;;;;;;10.50;5.82;;;;;;;;;;5097128;28;20043;-85
2022/06/04 04:52:37;;;;;;;9.10;4.78;;;;;;;;;;5096084;28;20044;-85
2022/06/04 04:55:04;;;;;;;12.90;4.88;;;;;;;;;;5111653;28;20044;-80
2022/06/04 04:57:31;;;;;;;12.48;4.82;;;;;;;;;;5095354;28;20047;-82
2022/06/04 04:59:57;;;;;;;8.93;4.43;;;;;;;;;;5095335;28;20058;-85
2022/06/04 05:02:23;;;;;;;6.15;4.20;;;;;;;;;;5094823;28;20047;-83
2022/06/04 05:04:49;;;;;;;6.82;3.80;;;;;;;;;;5112921;28;20047;-84
2022/06/04 05:07:15;;;;;;;5.30;3.22;;;;;;;;;;5094741;28;20056;-85
2022/06/04 05:09:41;;;;;;;6.15;4.25;;;;;;;;;;5111590;28;20584;-86
2022/06/04 05:12:08;;;;;;;5.85;3.35;;;;;;;;;;5111762;28;20043;-85
2022/06/04 05:14:35;;;;;;;6.43;3.83;;;;;;;;;;5096150;28;20036;-85
2022/06/04 05:17:01;;;;;;;6.85;3.42;;;;;;;;;;5095837;28;20039;-84
2022/06/04 05:19:28;;;;;;;4.95;3.15;;;;;;;;;;5111403;28;20079;-84
2022/06/04 05:21:55;;;;;;;8.55;3.10;;;;;;;;;;5094361;28;20506;-84
2022/06/04 05:24:26;;;;;;;5.82;3.35;;;;;;;;;;5111527;28;20074;-83
2022/06/04 05:26:52;;;;;;;;;;;;;;;;;;5095029;28;20154;-81
2022/06/04 05:29:18;;;;;;;6.47;3.15;;;;;;;;;;5094349;28;19945;-82
2022/06/04 05:31:46;;;;;;;6.28;3.13;;;;;;;;;;5093839;28;20050;-81
2022/06/04 05:34:12;;;;;;;5.43;3.83;;;;;;;;;;5094449;28;20038;-86
2022/06/04 05:36:39;;;;;;;6.32;3.40;;;;;;;;;;5093422;28;20031;-80
2022/06/04 05:39:05;;;;;;;5.70;3.65;;;;;;;;;;5090963;28;20036;-81
2022/06/04 05:41:31;;;;;;;6.68;3.60;;;;;;;;;;5093517;28;20142;-80
2022/06/04 05:43:58;;;;;;;6.88;3.55;;;;;;;;;;5093539;28;20089;-80
2022/06/04 05:46:24;;;;;;;12.73;5.85;;;;;;;;;;5093874;28;20520;-85
2022/06/04 05:48:50;;;;;;;6.45;3.50;;;;;;;;;;5094000;28;20061;-86
2022/06/04 05:51:18;;;;;;;5.43;3.20;;;;;;;;;;5094046;28;20131;-82
2022/06/04 05:53:44;;;;;;;6.30;3.03;;;;;;;;;;5093844;28;20505;-82
2022/06/04 05:56:12;;;;;;;4.03;3.58;;;;;;;;;;5093781;28;20046;-83
2022/06/04 05:58:38;;;;;;;14.85;6.35;;;;;;;;;;5093886;28;20039;-87
2022/06/04 06:01:04;;;;;;;6.35;3.70;;;;;;;;;;5093864;28;20089;-86
2022/06/04 06:03:30;;;;;;;6.25;3.90;;;;;;;;;;5111008;28;20064;-85
2022/06/04 06:05:56;;;;;;;4.68;3.35;;;;;;;;;;5093762;28;20082;-82
2022/06/04 06:08:23;;;;;;;6.50;4.22;;;;;;;;;;5093191;28;20086;-81
2022/06/04 06:10:49;;;;;;;5.63;4.65;;;;;;;;;;5093452;28;20050;-85
2022/06/04 06:13:15;;;;;;;8.77;5.53;;;;;;;;;;5093955;28;20040;-84
2022/06/04 06:15:41;;;;;;;7.53;5.15;;;;;;;;;;5111020;28;20039;-82
2022/06/04 06:18:07;;;;;;;6.35;4.53;;;;;;;;;;5110124;28;20039;-85
2022/06/04 06:20:33;;;;;;;6.07;4.07;;;;;;;;;;5093676;28;20085;-80
2022/06/04 06:23:00;;;;;;;5.97;4.15;;;;;;;;;;5111282;28;20135;-83
2022/06/04 06:25:26;;;;;;;5.78;4.50;;;;;;;;;;5111382;28;20036;-84
2022/06/04 06:27:52;;;;;;;16.88;8.20;;;;;;;;;;5097117;28;20036;-83
2022/06/04 06:30:19;;;;;;;8.40;5.68;;;;;;;;;;5097205;28;20069;-85
2022/06/04 06:32:45;;;;;;;5.25;4.47;;;;;;;;;;5110961;28;20038;-81
2022/06/04 06:35:11;;;;;;;4.75;3.35;;;;;;;;;;5097041;28;20084;-81
2022/06/04 06:37:38;;;;;;;6.00;4.75;;;;;;;;;;5097038;28;20054;-82
2022/06/04 06:40:05;;;;;;;6.50;4.10;;;;;;;;;;5096324;28;20091;-81
2022/06/04 06:42:31;;;;;;;6.38;4.80;;;;;;;;;;5096657;28;20050;-82
2022/06/04 06:44:57;;;;;;;7.63;5.00;;;;;;;;;;5096644;28;20101;-81
2022/06/04 06:47:23;;;;;;;5.70;4.57;;;;;;;;;;5113515;28;20035;-83
2022/06/04 06:49:49;;;;;;;24.58;13.27;;;;;;;;;;5096746;28;20043;-85
2022/06/04 06:52:16;;;;;;;15.52;9.20;;;;;;;;;;5096432;28;20035;-78
2022/06/04 06:54:43;;;;;;;6.68;4.95;;;;;;;;;;5096086;28;20100;-80
2022/06/04 06:57:10;;;;;;;10.25;4.82;;;;;;;;;;5096545;28;20134;-85
2022/06/04 06:59:37;;;;;;;6.57;5.38;;;;;;;;;;5112921;28;20088;-84
2022/06/04 07:02:04;;;;;;;7.85;6.13;;;;;;;;;;5095582;28;20031;-79
2022/06/04 07:04:30;;;;;;;6.68;4.95;;;;;;;;;;5096204;28;20047;-83
2022/06/04 07:06:58;;;;;;;11.98;8.05;;;;;;;;;;5096550;28;20483;-87
2022/06/04 07:09:26;;;;;;;5.32;4.18;;;;;;;;;;5097006;28;20070;-86
2022/06/04 07:11:52;;;;;;;5.93;4.60;;;;;;;;;;5093530;28;20107;-85
2022/06/04 07:14:19;;;;;;;7.70;5.43;;;;;;;;;;5096680;28;20028;-83
2022/06/04 07:16:45;;;;;;;6.00;4.80;;;;;;;;;;5095957;28;20089;-84
2022/06/04 07:19:13;;;;;;;7.22;4.57;;;;;;;;;;5110696;28;20139;-83
2022/06/04 07:21:39;;;;;;;7.05;5.40;;;;;;;;;;5096677;28;20058;-80
2022/06/04 07:24:05;;;;;;;6.15;4.90;;;;;;;;;;5096800;28;20044;-84
2022/06/04 07:26:31;;;;;;;5.97;4.68;;;;;;;;;;5097373;28;20391;-81
2022/06/04 07:28:57;;;;;;;6.57;5.32;;;;;;;;;;5097303;28;20048;-85
2022/06/04 07:31:23;;;;;;;5.38;4.75;;;;;;;;;;5096790;28;20039;-81
2022/06/04 07:33:55;;;;;;;6.68;5.38;;;;;;;;;;5097731;28;20177;-83
2022/06/04 07:36:23;;;;;;;6.32;5.22;;;;;;;;;;5097011;28;20403;-84
2022/06/04 07:38:49;;;;;;;7.43;5.22;;;;;;;;;;5114501;28;20044;-81
2022/06/04 07:41:16;;;;;;;5.32;4.82;;;;;;;;;;5113925;28;20134;-84
2022/06/04 07:43:42;;;;;;;4.53;4.13;;;;;;;;;;5095656;28;20040;-82
2022/06/04 07:46:08;;;;;;;5.32;4.18;;;;;;;;;;5095796;28;20415;-84
2022/06/04 07:48:34;;;;;;;6.25;4.80;;;;;;;;;;5093223;28;20036;-87
2022/06/04 07:51:02;;;;;;;5.15;4.65;;;;;;;;;;5092156;28;20118;-85
2022/06/04 07:53:29;;;;;;;6.20;4.40;;;;;;;;;;5108981;28;20112;-87
2022/06/04 07:55:58;;;;;;;5.57;5.00;;;;;;;;;;5108559;28;20039;-87
2022/06/04 07:58:24;;;;;;;5.00;4.55;;;;;;;;;;5109612;28;20376;-83
2022/06/04 08:00:56;;;;;;;4.50;4.10;;;;;;;;;;5108973;28;20031;-85
2022/06/04 08:03:22;;;;;;;5.35;4.63;;;;;;;;;;5109095;28;20031;-82
2022/06/04 08:05:50;;;;;;;4.90;4.50;;;;;;;;;;5090896;28;20503;-82
2022/06/04 08:08:16;;;;;;;6.07;4.72;;;;;;;;;;5091389;28;20398;-80
2022/06/04 08:10:46;;;;;;;5.30;4.78;;;;;;;;;;5091443;28;20043;-82
2022/06/04 08:13:33;;;;;;;4.90;4.22;;;;;;;;;;5088625;28;20038;-85
2022/06/04 08:16:01;;;;;;;6.07;5.00;;;;;;;;;;5106276;28;20125;-83
2022/06/04 08:18:33;;;;;;;4.90;4.40;;;;;;;;;;5091286;28;20122;-87
2022/06/04 08:20:59;;;;;;;3.85;3.55;;;;;;;;;;5091018;28;20081;-83
2022/06/04 08:23:25;;;;;;;4.93;4.38;;;;;;;;;;5091065;28;20353;-87
2022/06/04 08:25:54;;;;;;;4.63;4.07;;;;;;;;;;5089374;28;20090;-84
2022/06/04 08:28:20;;;;;;;5.50;4.20;;;;;;;;;;5108313;28;20067;-86
2022/06/04 08:30:46;;;;;;;5.63;5.07;;;;;;;;;;5091361;28;20393;-80
2022/06/04 08:33:14;;;;;;;5.72;4.25;;;;;;;;;;5085592;28;20032;-84
2022/06/04 08:35:40;;;;;;;5.03;4.43;;;;;;;;;;5108481;28;20039;-83
2022/06/04 08:38:07;;;;;;;5.25;4.63;;;;;;;;;;5108460;28;20646;-82
2022/06/04 08:40:37;;;;;;;8.43;5.55;;;;;;;;;;5074603;28;20058;-83
2022/06/04 08:43:22;;;;;;;7.03;5.15;;;;;;;;;;5107708;28;20043;-82
2022/06/04 08:45:48;;;;;;;6.45;5.07;;;;;;;;;;5090409;28;20031;-83
2022/06/04 08:48:16;;;;;;;7.07;6.00;;;;;;;;;;5090110;28;20047;-81
2022/06/04 08:50:43;;;;;;;13.38;9.20;;;;;;;;;;5108672;28;20036;-83
2022/06/04 08:53:14;;;;;;;5.43;4.88;;;;;;;;;;5090763;28;20075;-80
2022/06/04 08:59:06;;;;;;;5.25;4.75;;;;;;;;;;5109842;28;20048;-83
2022/06/04 09:01:36;;;;;;;5.60;4.85;;;;;;;;;;5090949;28;20040;-80
2022/06/04 09:04:02;;;;;;;5.40;4.70;;;;;;;;;;5094209;28;20043;-79
2022/06/04 09:06:42;;;;;;;4.78;3.72;;;;;;;;;;5094553;28;20036;-80
2022/06/04 09:09:18;;;;;;;7.55;5.45;;;;;;;;;;5094592;28;20511;-85
2022/06/04 09:11:51;;;;;;;9.60;5.38;;;;;;;;;;5094230;28;20050;-80
2022/06/04 09:14:26;;;;;;;6.35;5.03;;;;;;;;;;5111709;28;20380;-83
2022/06/04 09:16:59;;;;;;;7.07;5.20;;;;;;;;;;5095361;28;20070;-87
2022/06/04 09:19:27;;;;;;;5.43;4.72;;;;;;;;;;5095707;28;20417;-85
2022/06/04 09:21:53;;;;;;;4.80;4.05;;;;;;;;;;5095228;28;20046;-81
2022/06/04 09:24:20;;;;;;;5.20;4.63;;;;;;;;;;5112287;28;20075;-82
2022/06/04 09:27:04;;;;;;;5.15;4.03;;;;;;;;;;5078742;28;20509;-84
2022/06/04 09:29:30;;;;;;;5.97;4.93;;;;;;;;;;5095484;28;20039;-86
2022/06/04 09:32:04;;;;;;;6.30;5.35;;;;;;;;;;5095622;28;20035;-84
2022/06/04 09:34:32;;;;;;;6.38;4.78;;;;;;;;;;5095234;28;20040;-84
2022/06/04 09:36:59;;;;;;;5.45;4.93;;;;;;;;;;5095444;28;20522;-80
2022/06/04 09:39:29;;;;;;;5.40;4.80;;;;;;;;;;5112011;28;20491;-86
2022/06/04 09:41:55;;;;;;;;;;;;;;;;;;5112791;28;20491;-80
2022/06/04 09:44:22;;;;;;;6.32;4.97;;;;;;;;;;5095137;28;19922;-82
2022/06/04 09:46:48;;;;;;;6.93;5.30;;;;;;;;;;5078508;28;20047;-83
2022/06/04 09:49:21;;;;;;;5.55;5.00;;;;;;;;;;5112253;28;20089;-82
2022/06/04 09:51:47;;;;;;;6.53;5.00;;;;;;;;;;5095148;28;20031;-80
2022/06/04 09:54:20;;;;;;;4.80;4.07;;;;;;;;;;5095689;28;20035;-81
2022/06/04 09:56:50;;;;;;;5.10;3.85;;;;;;;;;;5094646;28;20126;-82
2022/06/04 09:59:19;;;;;;;5.28;3.30;;;;;;;;;;5097401;28;20039;-85
2022/06/04 10:01:59;;;;;;;5.78;4.63;;;;;;;;;;5097678;28;20192;-80
2022/06/04 10:04:36;;;;;;;5.00;3.33;;;;;;;;;;5114746;28;20181;-84
2022/06/04 10:07:06;;;;;;;5.60;3.78;;;;;;;;;;5097302;28;20613;-80
2022/06/04 10:13:42;;;;;;;5.22;4.10;;;;;;;;;;5114358;28;20043;-78
2022/06/04 10:15:14;;;;;;;7.10;4.32;;;;;;;;;;5100290;28;20075;-80
2022/06/04 10:17:41;;;;;;;9.18;5.30;;;;;;;;;;5097358;28;20047;-83
2022/06/04 10:20:19;;;;;;;4.28;3.50;;;;;;;;;;5097373;28;20046;-81
2022/06/04 10:22:49;;;;;;;5.40;3.70;;;;;;;;;;5097408;28;20039;-83
2022/06/04 10:25:15;;;;;;;;;;;;;;;;;;5115048;28;20547;-85
2022/06/04 10:27:52;;;;;;;4.70;4.20;;;;;;;;;;5097093;28;20030;-81
2022/06/04 10:30:39;;;;;;;4.25;2.92;;;;;;;;;;5114040;28;20075;-81
2022/06/04 10:33:15;;;;;;;4.18;2.95;;;;;;;;;;5096724;28;20418;-85
2022/06/04 10:35:50;;;;;;;5.70;4.80;;;;;;;;;;5096741;28;20043;-84
2022/06/04 10:38:29;;;;;;;7.18;3.45;;;;;;;;;;5097177;28;20380;-81
2022/06/04 10:41:19;;;;;;;7.10;4.30;;;;;;;;;;5096567;28;20098;-85
2022/06/04 10:43:48;;;;;;;5.38;3.35;;;;;;;;;;5089740;28;20176;-81
2022/06/04 10:46:26;;;;;;;6.93;4.43;;;;;;;;;;5096472;28;20044;-87
2022/06/04 10:48:55;;;;;;;4.50;3.40;;;;;;;;;;5096952;28;20040;-82
2022/06/04 10:51:40;;;;;;;7.40;3.70;;;;;;;;;;5096967;28;20058;-79
2022/06/04 10:54:09;;;;;;;6.25;3.95;;;;;;;;;;5096478;28;20057;-89
2022/06/04 10:56:54;;;;;;;9.02;4.25;;;;;;;;;;5096562;28;20043;-84
2022/06/04 10:59:32;;;;;;;6.25;3.85;;;;;;;;;;5096410;28;20043;-84
2022/06/04 11:02:11;;;;;;;4.60;3.40;;;;;;;;;;5096823;28;20437;-81
2022/06/04 11:04:45;;;;;;;6.47;4.03;;;;;;;;;;5096329;28;20039;-86
2022/06/04 11:07:30;;;;;;;6.10;4.32;;;;;;;;;;5096557;28;20047;-86
2022/06/04 11:09:57;;;;;;;7.07;3.70;;;;;;;;;;5095512;28;20043;-82
2022/06/04 11:12:30;;;;;;;4.03;2.97;;;;;;;;;;5096309;28;20031;-83
2022/06/04 11:14:58;;;;;;;4.57;3.10;;;;;;;;;;5096215;28;20035;-84
2022/06/04 11:17:26;;;;;;;5.38;3.42;;;;;;;;;;5095878;28;20075;-84
2022/06/04 11:19:59;;;;;;;4.97;3.25;;;;;;;;;;5096331;28;20072;-84
2022/06/04 11:22:48;;;;;;;5.57;4.90;;;;;;;;;;5095872;28;20112;-87
2022/06/04 11:25:32;;;;;;;4.40;3.65;;;;;;;;;;5096051;28;20050;-83
2022/06/04 11:28:03;;;;;;;5.75;3.83;;;;;;;;;;5113111;28;20079;-85
2022/06/04 11:30:38;;;;;;;4.60;2.67;;;;;;;;;;5095956;28;20398;-83
2022/06/04 11:33:36;;;;;;;6.18;2.70;;;;;;;;;;5095578;28;20048;-87
2022/06/04 11:36:21;;;;;;;7.50;3.65;;;;;;;;;;5062624;28;20510;-85
2022/06/04 11:38:47;;;;;;;6.60;3.28;;;;;;;;;;5095119;28;20395;-82
2022/06/04 11:41:32;;;;;;;4.80;3.67;;;;;;;;;;5095367;28;20051;-84
2022/06/04 11:43:58;;;;;;;6.63;3.97;;;;;;;;;;5095751;28;20108;-84
2022/06/04 11:46:32;;;;;;;6.28;3.42;;;;;;;;;;5095950;28;20075;-79
2022/06/04 11:49:06;;;;;;;5.70;4.82;;;;;;;;;;5095771;28;20043;-83
2022/06/04 11:51:38;;;;;;;4.72;3.45;;;;;;;;;;5112625;28;20493;-83
2022/06/04 11:54:17;;;;;;;8.15;3.75;;;;;;;;;;5095581;28;20091;-82
2022/06/04 11:56:43;;;;;;;5.55;3.40;;;;;;;;;;5095341;28;20123;-82
2022/06/04 11:59:09;;;;;;;7.32;3.55;;;;;;;;;;5112210;28;20506;-82
2022/06/04 12:01:41;;;;;;;6.00;3.53;;;;;;;;;;5095340;28;20039;-82
2022/06/04 12:04:11;;;;;;;4.32;3.05;;;;;;;;;;5095713;28;20043;-80
2022/06/04 12:06:43;;;;;;;3.63;2.75;;;;;;;;;;5095123;28;20510;-83
2022/06/04 12:09:16;;;;;;;5.10;2.38;;;;;;;;;;5094662;28;20032;-85
2022/06/04 12:11:59;;;;;;;5.00;3.03;;;;;;;;;;5095307;28;20519;-79
2022/06/04 12:14:25;;;;;;;3.53;2.63;;;;;;;;;;5095058;28;20047;-85
2022/06/04 12:17:06;;;;;;;4.70;2.67;;;;;;;;;;5095108;28;20035;-84
2022/06/04 12:25:11;;;;;;;4.00;2.42;;;;;;;;;;5112003;28;20045;-85
2022/06/04 12:27:53;;;;;;;6.00;3.20;;;;;;;;;;5094640;28;20046;-82
2022/06/04 12:30:30;;;;;;;4.30;2.67;;;;;;;;;;5094789;28;20118;-82
2022/06/04 12:32:57;;;;;;;4.30;2.95;;;;;;;;;;5094147;28;20074;-80
2022/06/04 12:35:23;;;;;;;3.88;2.50;;;;;;;;;;5094640;28;20038;-85
2022/06/04 12:37:58;;;;;;;4.60;3.40;;;;;;;;;;5094311;28;20429;-84
2022/06/04 12:40:24;;;;;;;2.88;2.30;;;;;;;;;;5094566;28;20055;-82
2022/06/04 12:43:13;;;;;;;3.55;3.05;;;;;;;;;;5094476;28;20126;-84
2022/06/04 12:45:45;;;;;;;4.72;3.03;;;;;;;;;;5094341;28;20041;-86
2022/06/04 12:48:21;;;;;;;5.90;2.85;;;;;;;;;;5094186;28;20139;-86
2022/06/04 12:50:52;;;;;;;4.15;3.20;;;;;;;;;;5094688;28;20059;-81
2022/06/04 12:53:21;;;;;;;7.93;2.90;;;;;;;;;;5111025;28;20087;-85
2022/06/04 12:55:53;;;;;;;5.32;4.00;;;;;;;;;;5094359;28;20432;-84
2022/06/04 12:58:28;;;;;;;2.90;2.47;;;;;;;;;;5094289;28;20445;-83
2022/06/04 13:01:01;;;;;;;4.70;2.95;;;;;;;;;;5094503;28;20068;-83
2022/06/04 13:03:34;;;;;;;6.03;2.80;;;;;;;;;;5094269;28;20043;-85
2022/06/04 13:06:12;;;;;;;5.53;3.97;;;;;;;;;;5094130;28;20035;-79
2022/06/04 13:08:38;;;;;;;4.65;3.78;;;;;;;;;;5094583;28;20047;-86
2022/06/04 13:11:13;;;;;;;3.53;2.92;;;;;;;;;;5110919;28;20093;-85
2022/06/04 13:13:45;;;;;;;4.25;2.63;;;;;;;;;;5094005;28;20127;-86
2022/06/04 13:16:19;;;;;;;5.97;3.63;;;;;;;;;;5094359;28;20051;-81
2022/06/04 13:18:48;;;;;;;4.85;2.80;;;;;;;;;;5093778;28;20075;-83
2022/06/04 13:21:21;;;;;;;6.32;3.22;;;;;;;;;;5094060;28;20039;-82
2022/06/04 13:23:51;;;;;;;7.10;4.30;;;;;;;;;;5094004;28;20097;-83
2022/06/04 13:26:17;;;;;;;4.07;2.60;;;;;;;;;;5111064;28;20070;-81
2022/06/04 13:28:44;;;;;;;5.70;4.15;;;;;;;;;;5094072;28;20313;-83
2022/06/04 13:31:22;;;;;;;4.28;3.17;;;;;;;;;;5093805;28;20079;-80
2022/06/04 13:33:49;;;;;;;6.35;3.30;;;;;;;;;;5096872;28;20054;-86
2022/06/04 13:36:17;;;;;;;6.10;3.97;;;;;;;;;;5098247;28;20035;-84
2022/06/04 13:38:44;;;;;;;4.18;3.05;;;;;;;;;;5098655;28;20498;-81
2022/06/04 13:44:19;;;;;;;4.50;3.25;;;;;;;;;;5115108;28;20450;-87
2022/06/04 13:46:45;;;;;;;6.25;3.67;;;;;;;;;;5098278;28;20047;-81
2022/06/04 13:49:13;;;;;;;6.80;3.03;;;;;;;;;;5098304;28;20045;-79
2022/06/04 13:51:48;;;;;;;4.97;3.63;;;;;;;;;;5098031;28;20048;-84
2022/06/04 13:54:22;;;;;;;8.35;3.45;;;;;;;;;;5097938;28;20441;-81
2022/06/04 13:56:48;;;;;;;6.05;4.55;;;;;;;;;;5097870;28;20139;-80
2022/06/04 13:59:35;;;;;;;6.20;4.55;;;;;;;;;;5098046;28;20067;-84
2022/06/04 14:02:03;;;;;;;4.38;2.95;;;;;;;;;;5098009;28;20134;-86
2022/06/04 14:07:14;;;;;;;6.70;5.18;;;;;;;;;;5114152;28;20047;-81
2022/06/04 14:09:50;;;;;;;4.78;4.00;;;;;;;;;;5114716;28;20043;-83
2022/06/04 14:12:19;;;;;;;7.28;3.40;;;;;;;;;;5098003;28;20043;-80
2022/06/04 14:15:03;;;;;;;7.90;5.20;;;;;;;;;;5097359;28;20118;-85
2022/06/04 14:17:41;;;;;;;4.78;3.38;;;;;;;;;;5097531;28;20046;-82
2022/06/04 14:20:26;;;;;;;4.95;3.88;;;;;;;;;;5098129;28;20538;-85
2022/06/04 14:23:13;;;;;;;6.20;4.07;;;;;;;;;;5097903;28;20055;-83
2022/06/04 14:25:39;;;;;;;6.75;4.50;;;;;;;;;;5096907;28;20131;-84
2022/06/04 14:28:14;;;;;;;7.35;3.65;;;;;;;;;;5097190;28;20467;-82
2022/06/04 14:30:44;;;;;;;5.28;4.07;;;;;;;;;;5097224;28;20122;-85
2022/06/04 14:33:18;;;;;;;7.43;5.25;;;;;;;;;;5096259;28;20396;-86
2022/06/04 14:35:45;;;;;;;6.55;3.67;;;;;;;;;;5110625;28;20399;-86
2022/06/04 14:38:16;;;;;;;6.55;3.67;;;;;;;;;;5093807;28;20379;-87
2022/06/04 14:41:00;;;;;;;6.32;3.78;;;;;;;;;;5093361;28;20052;-84
2022/06/04 14:43:30;;;;;;;7.57;4.53;;;;;;;;;;5093949;28;20372;-86
2022/06/04 14:46:09;;;;;;;6.40;3.23;;;;;;;;;;5110640;28;20043;-84
2022/06/04 14:48:54;;;;;;;4.35;3.60;;;;;;;;;;5110675;28;20043;-82
2022/06/04 14:51:38;;;;;;;6.47;4.63;;;;;;;;;;5093187;28;20092;-85
2022/06/04 14:54:06;;;;;;;6.50;3.83;;;;;;;;;;5093326;28;20080;-85
2022/06/04 14:56:39;;;;;;;5.43;3.60;;;;;;;;;;5093389;28;20055;-84
2022/06/04 14:59:17;;;;;;;7.25;4.50;;;;;;;;;;5093121;28;20040;-81
2022/06/04 15:02:00;;;;;;;7.30;4.20;;;;;;;;;;5092944;28;20380;-85
2022/06/04 15:07:30;;;;;;;7.50;3.92;;;;;;;;;;5109815;28;20392;-83
2022/06/04 15:09:59;;;;;;;7.45;4.00;;;;;;;;;;5092943;28;20066;-82
2022/06/04 15:12:37;;;;;;;3.38;3.08;;;;;;;;;;5093053;28;20122;-82
2022/06/04 15:15:09;;;;;;;4.88;3.13;;;;;;;;;;5109719;28;20044;-82
2022/06/04 15:17:56;;;;;;;5.50;3.42;;;;;;;;;;5092529;28;20058;-82
2022/06/04 15:20:22;;;;;;;4.95;3.20;;;;;;;;;;5092689;28;20130;-84
2022/06/04 15:23:07;;;;;;;6.82;3.97;;;;;;;;;;5092983;28;20043;-87
2022/06/04 15:25:48;;;;;;;5.05;3.08;;;;;;;;;;5092851;28;20050;-82
2022/06/04 15:34:28;;;;;;;6.60;3.47;;;;;;;;;;5109533;28;20043;-84